ePrivacy and GPDR Cookie Consent by Cookie Consent
EmailTwitter


Surface observations / France / LFMP (07747)

Regions: Quebec | Canada | USA | Europe | France | UK | Elsewhere
Station
Display
Info & Location for LFMP (07747) | Help decoding METAR

Weather Conditions observed on 2022/01/17 at 19:00 UTC at PERPIGNAN/RIVESA, FR (LFMP)

Temperature: 10.0 Celsius.

Dewpoint: -2.0 Celsius.

Relative Humidity: 43%

Winds: West at 13 km/h or 7 knots.

Mean Sea level Pressure: 103.00 kilopascals.

Coded METAR:

LFMP 171900Z AUTO 28007KT 250V330 CAVOK 10/M02 Q1030 NOSIG=